Time;durP1;ratioP1;P1;durP2;ratioP2;P2;SDS_P1;SDS_P2;PMS_P1;PMS_P2;Temp;Humidity;BMP_temperature;BMP_pressure;BME280_temperature;BME280_humidity;BME280_pressure;Samples;Min_cycle;Max_cycle;Signal;HPM_P1;HPM_P2
2022/03/28 00:00:17;;;;;;;4.03;2.83;;;9.00;99.90;;;;;;5011573;28;20188;-69
2022/03/28 00:02:44;;;;;;;3.50;2.90;;;9.00;99.90;;;;;;5011857;28;20177;-69
2022/03/28 00:05:13;;;;;;;3.47;2.87;;;9.10;99.90;;;;;;5011938;28;20427;-69
2022/03/28 00:07:39;;;;;;;5.40;3.50;;;9.00;99.90;;;;;;5011748;28;20825;-68
2022/03/28 00:10:05;;;;;;;3.20;2.43;;;9.00;99.90;;;;;;5011696;28;20406;-69
2022/03/28 00:12:31;;;;;;;4.87;3.00;;;8.90;99.90;;;;;;5012031;28;20182;-69
2022/03/28 00:14:56;;;;;;;4.33;3.50;;;8.80;99.90;;;;;;5011550;28;20451;-68
2022/03/28 00:17:22;;;;;;;4.00;2.63;;;8.80;99.90;;;;;;5011829;28;20442;-68
2022/03/28 00:19:47;;;;;;;3.53;2.30;;;8.80;99.90;;;;;;5011809;28;20183;-69
2022/03/28 00:22:13;;;;;;;7.10;3.70;;;8.70;99.90;;;;;;5014847;28;20370;-69
2022/03/28 00:24:38;;;;;;;3.50;2.77;;;8.60;99.90;;;;;;5013433;28;20678;-68
2022/03/28 00:27:04;;;;;;;5.37;3.13;;;8.60;99.90;;;;;;5011315;28;20562;-68
2022/03/28 00:29:29;;;;;;;3.50;2.73;;;8.50;99.90;;;;;;5011283;28;20181;-69
2022/03/28 00:31:55;;;;;;;7.00;3.33;;;8.50;99.90;;;;;;5012308;28;20180;-69
2022/03/28 00:34:21;;;;;;;3.50;3.20;;;8.60;99.90;;;;;;5014821;28;20254;-69
2022/03/28 00:36:49;;;;;;;5.07;3.10;;;8.50;99.90;;;;;;5014882;28;20191;-69
2022/03/28 00:39:16;;;;;;;4.17;3.23;;;8.50;99.90;;;;;;5014747;28;20501;-69
2022/03/28 00:41:42;;;;;;;6.20;3.60;;;8.80;99.90;;;;;;5014794;28;20934;-68
2022/03/28 00:44:07;;;;;;;3.53;2.80;;;8.70;99.90;;;;;;5014886;28;20439;-68
2022/03/28 00:46:34;;;;;;;2.57;2.37;;;8.60;99.90;;;;;;5014912;28;20403;-68
2022/03/28 00:49:00;;;;;;;4.13;2.97;;;8.80;99.90;;;;;;5014895;28;20175;-69
2022/03/28 00:51:25;;;;;;;3.00;2.60;;;8.70;99.90;;;;;;5014753;28;20403;-69
2022/03/28 00:53:51;;;;;;;14.10;3.60;;;8.80;99.90;;;;;;5015200;28;20173;-69
2022/03/28 00:56:17;;;;;;;3.10;2.80;;;8.90;99.90;;;;;;5014824;28;20254;-69
2022/03/28 00:58:43;;;;;;;5.63;2.60;;;8.90;99.90;;;;;;5014700;28;20210;-69
2022/03/28 01:01:11;;;;;;;6.87;4.00;;;8.80;99.90;;;;;;5015072;28;20468;-69
2022/03/28 01:03:37;;;;;;;4.90;3.70;;;8.80;99.90;;;;;;5015077;28;20173;-68
2022/03/28 01:06:03;;;;;;;3.23;2.53;;;8.90;99.90;;;;;;5014252;28;20960;-68
2022/03/28 01:08:31;;;;;;;3.10;2.60;;;8.80;99.90;;;;;;5014473;28;20462;-68
2022/03/28 01:10:58;;;;;;;2.30;2.10;;;8.50;99.90;;;;;;5014423;28;20416;-69
2022/03/28 01:13:24;;;;;;;4.40;3.60;;;8.40;99.90;;;;;;5014488;28;20443;-69
2022/03/28 01:15:50;;;;;;;4.53;2.73;;;8.40;99.90;;;;;;5014326;28;20486;-68
2022/03/28 01:18:15;;;;;;;4.37;3.13;;;8.30;99.90;;;;;;5014310;28;20186;-68
2022/03/28 01:20:41;;;;;;;3.93;3.10;;;8.30;99.90;;;;;;5014150;28;20180;-69
2022/03/28 01:23:08;;;;;;;6.67;3.93;;;8.40;99.90;;;;;;5014571;28;20266;-69
2022/03/28 01:25:34;;;;;;;4.90;3.20;;;8.40;99.90;;;;;;5014059;28;20461;-69
2022/03/28 01:28:01;;;;;;;3.43;1.97;;;8.20;99.90;;;;;;5014555;28;20459;-68
2022/03/28 01:30:28;;;;;;;5.00;2.90;;;8.30;99.90;;;;;;5014092;28;20418;-69
2022/03/28 01:32:56;;;;;;;5.53;3.27;;;8.30;99.90;;;;;;5012685;28;20411;-68
2022/03/28 01:35:26;;;;;;;4.50;2.70;;;8.20;99.90;;;;;;5014004;28;20793;-68
2022/03/28 01:37:52;;;;;;;4.10;2.90;;;8.10;99.90;;;;;;5014094;28;20466;-68
2022/03/28 01:40:17;;;;;;;3.47;2.90;;;8.10;99.90;;;;;;5013982;28;20419;-68
2022/03/28 01:42:45;;;;;;;5.67;3.30;;;8.10;99.90;;;;;;5013396;28;20180;-68
2022/03/28 01:45:12;;;;;;;4.20;3.30;;;8.00;99.90;;;;;;5012981;28;20202;-68
2022/03/28 01:47:38;;;;;;;4.67;3.03;;;8.00;99.90;;;;;;5015235;28;20497;-68
2022/03/28 01:50:04;;;;;;;4.60;3.10;;;7.90;99.90;;;;;;5016635;28;20811;-68
2022/03/28 01:52:29;;;;;;;3.27;2.53;;;8.00;99.90;;;;;;5014965;28;20175;-68
2022/03/28 01:54:54;;;;;;;4.23;2.63;;;8.10;99.90;;;;;;5013592;28;20510;-68
2022/03/28 01:57:20;;;;;;;5.00;3.27;;;8.10;99.90;;;;;;5013566;28;20226;-68
2022/03/28 01:59:46;;;;;;;5.47;3.57;;;8.00;99.90;;;;;;5013240;28;20209;-68
2022/03/28 02:02:11;;;;;;;6.73;3.30;;;8.00;99.90;;;;;;5013235;28;20183;-68
2022/03/28 02:04:36;;;;;;;4.17;2.60;;;7.90;99.90;;;;;;5013291;28;20200;-67
2022/03/28 02:07:02;;;;;;;6.90;3.20;;;8.00;99.90;;;;;;5013392;28;20192;-69
2022/03/28 02:09:27;;;;;;;5.37;3.20;;;7.90;99.90;;;;;;5015163;28;20169;-68
2022/03/28 02:11:53;;;;;;;4.20;2.73;;;8.00;99.90;;;;;;5014676;28;20187;-68
2022/03/28 02:14:19;;;;;;;6.03;3.17;;;7.90;99.90;;;;;;5013378;28;20195;-68
2022/03/28 02:16:44;;;;;;;2.53;2.33;;;7.80;99.90;;;;;;5013172;28;20259;-67
2022/03/28 02:19:10;;;;;;;5.20;2.93;;;7.70;99.90;;;;;;5013468;28;20553;-67
2022/03/28 02:21:35;;;;;;;3.07;2.50;;;7.70;99.90;;;;;;5013525;28;20172;-68
2022/03/28 02:24:01;;;;;;;5.90;3.43;;;7.80;99.90;;;;;;5013372;28;20188;-68
2022/03/28 02:26:26;;;;;;;9.20;2.97;;;8.00;99.90;;;;;;5013427;28;20179;-69
2022/03/28 02:28:52;;;;;;;7.50;3.57;;;8.00;99.90;;;;;;5013029;28;20283;-68
2022/03/28 02:31:18;;;;;;;6.10;3.50;;;7.90;99.90;;;;;;5012733;28;20259;-69
2022/03/28 02:33:44;;;;;;;3.30;2.97;;;7.70;99.90;;;;;;5012838;28;20227;-68
2022/03/28 02:36:10;;;;;;;8.40;3.40;;;7.70;99.90;;;;;;5012985;28;20169;-69
2022/03/28 02:38:35;;;;;;;6.17;2.87;;;7.50;99.90;;;;;;5012961;28;20888;-69
2022/03/28 02:41:01;;;;;;;8.30;3.83;;;7.60;99.90;;;;;;5013191;28;20422;-69
2022/03/28 02:43:27;;;;;;;3.70;2.80;;;7.50;99.90;;;;;;5013633;28;20267;-69
2022/03/28 02:45:52;;;;;;;4.50;2.53;;;7.50;99.90;;;;;;5012913;28;20188;-69
2022/03/28 02:48:18;;;;;;;6.60;2.90;;;7.40;99.90;;;;;;5012779;28;20242;-69
2022/03/28 02:50:45;;;;;;;3.20;2.73;;;7.40;99.90;;;;;;5012603;28;20590;-68
2022/03/28 02:53:11;;;;;;;4.93;2.80;;;7.60;99.90;;;;;;5012546;28;20169;-68
2022/03/28 02:55:37;;;;;;;3.90;2.67;;;7.70;99.90;;;;;;5012129;28;20427;-68
2022/03/28 02:58:03;;;;;;;5.10;3.33;;;7.60;99.90;;;;;;5012326;28;20419;-69
2022/03/28 03:00:28;;;;;;;3.57;3.23;;;7.80;99.90;;;;;;5012419;28;20417;-68
2022/03/28 03:02:54;;;;;;;5.47;2.50;;;7.80;99.90;;;;;;5012280;28;20251;-68
2022/03/28 03:05:19;;;;;;;6.03;2.40;;;7.80;99.90;;;;;;5010828;28;20388;-68
2022/03/28 03:07:51;;;;;;;5.00;3.00;;;7.80;99.90;;;;;;5012085;28;20214;-68
2022/03/28 03:10:17;;;;;;;3.13;2.83;;;7.70;99.90;;;;;;5012277;28;20246;-68
2022/03/28 03:12:42;;;;;;;3.63;2.50;;;7.70;99.90;;;;;;5011996;28;20827;-68
2022/03/28 03:15:08;;;;;;;5.60;3.47;;;7.50;99.90;;;;;;5012072;28;20222;-69
2022/03/28 03:17:35;;;;;;;2.50;2.30;;;7.40;99.90;;;;;;5010813;28;20184;-68
2022/03/28 03:20:00;;;;;;;4.07;2.17;;;7.40;99.90;;;;;;5011884;28;20415;-68
2022/03/28 03:22:26;;;;;;;4.73;2.30;;;7.30;99.90;;;;;;5011668;28;20947;-69
2022/03/28 03:24:51;;;;;;;3.47;2.17;;;7.40;99.90;;;;;;5028268;22;20231;-67
2022/03/28 03:27:17;;;;;;;2.73;2.03;;;7.40;99.90;;;;;;4991983;28;20193;-67
2022/03/28 03:29:42;;;;;;;5.17;3.13;;;7.30;99.90;;;;;;4992314;28;20652;-66
2022/03/28 03:32:08;;;;;;;4.67;3.70;;;7.20;99.90;;;;;;4992886;28;20659;-67
2022/03/28 03:34:34;;;;;;;3.50;2.50;;;7.30;99.90;;;;;;4995478;28;20184;-67
2022/03/28 03:37:01;;;;;;;5.63;2.30;;;7.40;99.90;;;;;;5011882;28;20441;-67
2022/03/28 03:39:26;;;;;;;3.23;2.90;;;7.20;99.90;;;;;;5011861;28;20419;-68
2022/03/28 03:41:55;;;;;;;5.40;2.70;;;7.10;99.90;;;;;;5011813;28;20494;-66
2022/03/28 03:44:21;;;;;;;5.50;2.80;;;7.20;99.90;;;;;;5010399;28;20188;-67
2022/03/28 03:46:47;;;;;;;4.17;2.87;;;7.20;99.90;;;;;;5011551;28;20566;-67
2022/03/28 03:49:13;;;;;;;5.63;2.90;;;7.30;99.90;;;;;;5011843;28;20706;-67
2022/03/28 03:51:38;;;;;;;3.13;2.30;;;7.20;99.90;;;;;;5011567;28;20226;-67
2022/03/28 03:54:05;;;;;;;2.67;2.30;;;7.10;99.90;;;;;;5011610;28;20431;-66
2022/03/28 03:56:31;;;;;;;3.00;2.10;;;7.00;99.90;;;;;;5011420;28;20200;-67
2022/03/28 03:58:57;;;;;;;2.47;1.97;;;6.90;99.90;;;;;;5011929;28;20408;-67
2022/03/28 04:01:24;;;;;;;2.47;2.27;;;6.90;99.90;;;;;;5011495;28;20173;-67
2022/03/28 04:03:49;;;;;;;4.73;2.13;;;7.00;99.90;;;;;;5011619;28;20416;-67
2022/03/28 04:06:15;;;;;;;5.43;2.50;;;6.90;99.90;;;;;;5011509;28;20979;-67
2022/03/28 04:08:41;;;;;;;4.13;2.03;;;7.00;99.90;;;;;;5015626;28;20203;-67
2022/03/28 04:11:07;;;;;;;3.00;2.40;;;7.00;99.90;;;;;;5015627;28;20411;-68
2022/03/28 04:13:33;;;;;;;2.10;1.90;;;6.90;99.90;;;;;;5015523;28;20172;-67
2022/03/28 04:15:59;;;;;;;4.37;3.07;;;6.80;99.90;;;;;;5015632;28;20831;-68
2022/03/28 04:18:25;;;;;;;3.27;2.80;;;6.70;99.90;;;;;;5015530;28;20411;-67
2022/03/28 04:20:52;;;;;;;16.50;3.90;;;6.60;99.90;;;;;;5015424;28;20188;-67
2022/03/28 04:23:18;;;;;;;2.13;1.83;;;6.60;99.90;;;;;;5015540;28;20411;-67
2022/03/28 04:25:44;;;;;;;4.30;2.60;;;6.60;99.90;;;;;;5015006;28;20469;-67
2022/03/28 04:28:09;;;;;;;4.80;3.37;;;6.70;99.90;;;;;;5015386;28;20455;-68
2022/03/28 04:30:36;;;;;;;4.60;3.00;;;6.60;99.90;;;;;;5015468;28;20164;-68
2022/03/28 04:33:02;;;;;;;5.50;3.63;;;6.70;99.90;;;;;;5015112;28;20195;-67
2022/03/28 04:35:28;;;;;;;3.83;3.43;;;6.70;99.90;;;;;;5015166;28;20438;-68
2022/03/28 04:37:54;;;;;;;3.83;2.80;;;6.70;99.90;;;;;;5015054;28;20422;-67
2022/03/28 04:40:20;;;;;;;3.20;3.00;;;6.70;99.90;;;;;;5015174;28;20890;-67
2022/03/28 04:42:46;;;;;;;2.60;2.40;;;6.60;99.90;;;;;;5015079;28;20164;-67
2022/03/28 04:45:12;;;;;;;5.10;2.77;;;6.60;99.90;;;;;;5015189;28;20434;-68
2022/03/28 04:47:38;;;;;;;5.83;3.20;;;6.50;99.90;;;;;;5015163;28;20540;-67
2022/03/28 04:50:06;;;;;;;5.20;2.60;;;6.50;99.90;;;;;;5015531;28;20839;-68
2022/03/28 04:52:31;;;;;;;3.43;3.13;;;6.60;99.90;;;;;;5015121;28;20403;-68
2022/03/28 04:54:57;;;;;;;4.03;3.63;;;6.50;99.90;;;;;;5014758;28;20954;-68
2022/03/28 04:57:22;;;;;;;4.50;3.13;;;6.50;99.90;;;;;;5015104;28;20643;-68
2022/03/28 04:59:48;;;;;;;8.43;2.77;;;6.40;99.90;;;;;;5015086;28;20176;-67
2022/03/28 05:02:14;;;;;;;3.77;2.70;;;6.50;99.90;;;;;;5014691;28;20172;-69
2022/03/28 05:04:40;;;;;;;5.00;2.53;;;6.50;99.90;;;;;;5014451;28;20557;-67
2022/03/28 05:07:06;;;;;;;5.87;3.67;;;6.50;99.90;;;;;;5014611;28;20454;-68
2022/03/28 05:09:32;;;;;;;7.23;3.23;;;6.50;99.90;;;;;;5014607;28;20976;-67
2022/03/28 05:11:57;;;;;;;6.63;4.60;;;6.50;99.90;;;;;;5014570;28;20165;-68
2022/03/28 05:14:23;;;;;;;6.23;4.37;;;6.50;99.90;;;;;;5014444;28;20941;-68
2022/03/28 05:16:49;;;;;;;5.67;3.10;;;6.50;99.90;;;;;;5014734;28;20191;-68
2022/03/28 05:19:14;;;;;;;5.87;4.37;;;6.50;99.90;;;;;;5014990;28;20206;-68
2022/03/28 05:21:40;;;;;;;6.10;2.87;;;6.50;99.90;;;;;;5014387;28;20559;-68
2022/03/28 05:24:05;;;;;;;5.57;2.97;;;6.40;99.90;;;;;;5014419;28;20169;-69
2022/03/28 05:26:31;;;;;;;5.20;3.60;;;6.50;99.90;;;;;;5015081;28;20204;-69
2022/03/28 05:28:57;;;;;;;5.57;3.63;;;6.50;99.90;;;;;;5014538;28;20200;-69
2022/03/28 05:31:22;;;;;;;4.77;2.70;;;6.50;99.90;;;;;;5014725;28;20172;-68
2022/03/28 05:33:48;;;;;;;6.33;4.43;;;6.60;99.90;;;;;;5014833;28;20568;-69
2022/03/28 05:36:14;;;;;;;2.70;2.10;;;6.60;99.90;;;;;;5014191;28;20658;-69
2022/03/28 05:38:40;;;;;;;12.90;4.10;;;6.60;99.90;;;;;;5014251;28;20172;-69
2022/03/28 05:41:06;;;;;;;4.43;3.20;;;6.60;99.90;;;;;;5014385;28;20424;-69
2022/03/28 05:43:34;;;;;;;4.60;3.50;;;6.60;99.90;;;;;;5014067;28;20805;-69
2022/03/28 05:45:59;;;;;;;7.10;4.40;;;6.60;99.90;;;;;;5014024;28;20792;-68
2022/03/28 05:48:25;;;;;;;4.37;3.97;;;6.60;99.90;;;;;;5013964;28;20451;-68
2022/03/28 05:50:50;;;;;;;4.40;3.10;;;6.80;99.90;;;;;;5013936;28;20531;-68
2022/03/28 05:53:16;;;;;;;4.17;2.93;;;7.10;99.90;;;;;;5013558;28;20168;-68
2022/03/28 05:55:43;;;;;;;3.63;2.90;;;7.40;99.90;;;;;;5013585;28;20647;-68
2022/03/28 05:58:09;;;;;;;3.77;3.37;;;7.40;99.90;;;;;;5014027;28;20193;-67
2022/03/28 06:00:38;;;;;;;6.00;3.03;;;7.80;99.90;;;;;;5013581;28;20400;-68
2022/03/28 06:03:05;;;;;;;4.90;3.13;;;7.90;99.90;;;;;;5013577;28;20418;-68
2022/03/28 06:05:36;;;;;;;4.90;2.80;;;8.30;99.90;;;;;;5013968;28;20974;-67
2022/03/28 06:08:01;;;;;;;5.83;3.50;;;8.40;99.90;;;;;;5013426;28;20980;-68
2022/03/28 06:10:27;;;;;;;3.10;2.40;;;8.30;99.90;;;;;;5013520;28;20411;-68
2022/03/28 06:12:52;;;;;;;3.53;2.90;;;8.50;99.90;;;;;;5013462;28;20175;-68
2022/03/28 06:15:18;;;;;;;7.57;2.90;;;9.00;99.90;;;;;;5013119;28;20228;-68
2022/03/28 06:17:44;;;;;;;7.03;3.70;;;9.10;99.90;;;;;;5013443;28;20183;-67
2022/03/28 06:20:11;;;;;;;3.30;2.60;;;9.90;99.90;;;;;;5013280;28;20415;-67
2022/03/28 06:22:36;;;;;;;5.63;2.83;;;10.00;99.90;;;;;;5013234;28;20415;-68
2022/03/28 06:25:03;;;;;;;6.30;3.80;;;10.10;99.90;;;;;;5013061;28;20501;-67
2022/03/28 06:27:29;;;;;;;4.27;3.07;;;10.30;99.90;;;;;;5013064;28;20667;-68
2022/03/28 06:29:55;;;;;;;6.30;3.07;;;10.10;99.90;;;;;;5012457;28;20418;-71
2022/03/28 06:32:21;;;;;;;4.03;2.70;;;10.30;99.90;;;;;;5000067;28;20412;-70
2022/03/28 06:34:48;;;;;;;7.63;4.00;;;10.40;99.90;;;;;;5000927;28;20193;-67
2022/03/28 06:37:17;;;;;;;7.67;3.60;;;9.90;99.90;;;;;;4995641;28;20431;-68
2022/03/28 06:39:43;;;;;;;6.73;3.80;;;11.80;99.90;;;;;;4998347;28;20481;-69
2022/03/28 06:42:09;;;;;;;7.03;3.40;;;11.90;99.90;;;;;;5013937;28;20478;-69
2022/03/28 06:44:35;;;;;;;5.77;3.37;;;12.20;99.90;;;;;;5015061;28;20246;-69
2022/03/28 06:47:01;;;;;;;4.00;3.37;;;11.00;99.90;;;;;;5015103;28;20447;-70
2022/03/28 06:49:26;;;;;;;4.00;3.60;;;11.30;99.90;;;;;;5013328;28;20450;-69
2022/03/28 06:51:52;;;;;;;5.90;3.53;;;12.20;99.90;;;;;;5015128;28;20408;-69
2022/03/28 06:54:19;;;;;;;4.70;3.93;;;12.00;99.90;;;;;;5015314;28;20179;-69
2022/03/28 06:56:45;;;;;;;5.13;4.17;;;11.30;99.90;;;;;;5009630;28;20272;-67
2022/03/28 06:59:11;;;;;;;6.97;4.20;;;10.70;99.90;;;;;;5014898;28;20416;-67
2022/03/28 07:01:37;;;;;;;4.00;3.10;;;10.60;99.90;;;;;;5015064;28;20400;-67
2022/03/28 07:04:03;;;;;;;6.10;3.37;;;10.80;99.90;;;;;;4995288;28;20205;-68
2022/03/28 07:06:29;;;;;;;4.07;2.80;;;11.80;99.90;;;;;;4994902;28;20194;-68
2022/03/28 07:08:55;;;;;;;5.50;3.40;;;13.10;99.90;;;;;;5006026;28;20829;-68
2022/03/28 07:11:20;;;;;;;4.53;3.00;;;12.10;99.90;;;;;;5012088;28;20404;-68
2022/03/28 07:13:46;;;;;;;6.10;3.80;;;11.50;99.90;;;;;;4998711;28;20546;-68
2022/03/28 07:16:12;;;;;;;7.73;4.00;;;11.70;99.90;;;;;;5012049;28;20552;-69
2022/03/28 07:18:37;;;;;;;4.87;3.53;;;11.70;99.90;;;;;;5012071;28;20180;-69
2022/03/28 07:21:03;;;;;;;5.27;4.10;;;13.40;99.90;;;;;;5012317;28;20177;-67
2022/03/28 07:23:29;;;;;;;8.43;6.03;;;13.80;99.90;;;;;;5012186;28;20174;-67
2022/03/28 07:25:56;;;;;;;5.57;3.40;;;14.40;99.90;;;;;;5011964;28;20262;-66
2022/03/28 07:28:21;;;;;;;7.30;3.80;;;14.10;99.90;;;;;;5012180;28;20212;-67
2022/03/28 07:30:47;;;;;;;6.20;3.53;;;13.00;99.90;;;;;;5011454;28;20909;-67
2022/03/28 07:33:13;;;;;;;7.40;3.80;;;12.70;99.90;;;;;;5003726;28;20194;-66
2022/03/28 07:35:38;;;;;;;7.70;3.80;;;12.90;99.90;;;;;;4998680;28;20288;-66
2022/03/28 07:38:08;;;;;;;5.13;3.67;;;13.90;99.90;;;;;;5012466;28;20214;-66
2022/03/28 07:40:36;;;;;;;5.47;3.07;;;15.00;99.90;;;;;;5008470;28;20180;-67
2022/03/28 07:43:02;;;;;;;4.67;3.43;;;14.90;99.90;;;;;;5011649;28;20448;-69
2022/03/28 07:45:28;;;;;;;8.57;6.10;;;15.90;99.90;;;;;;5011668;28;20441;-69
2022/03/28 07:47:53;;;;;;;5.77;4.37;;;16.00;99.90;;;;;;5011386;28;20450;-67
2022/03/28 07:50:18;;;;;;;9.93;5.30;;;15.10;99.90;;;;;;5012160;28;20546;-68
2022/03/28 07:52:44;;;;;;;6.80;3.57;;;14.90;99.90;;;;;;5004598;28;20676;-68
2022/03/28 07:55:13;;;;;;;4.33;3.70;;;14.80;99.90;;;;;;4986347;28;20185;-68
2022/03/28 07:57:39;;;;;;;4.60;2.90;;;14.00;99.90;;;;;;4992326;28;20174;-68
2022/03/28 08:00:11;;;;;;;5.40;3.73;;;14.70;99.90;;;;;;5005357;28;20428;-67
2022/03/28 08:02:37;;;;;;;6.77;3.87;;;14.50;99.90;;;;;;5011376;28;20417;-67
2022/03/28 08:05:04;;;;;;;6.57;3.23;;;14.80;99.90;;;;;;5011617;28;20426;-67
2022/03/28 08:07:30;;;;;;;7.30;3.20;;;14.10;99.90;;;;;;5011881;28;20817;-68
2022/03/28 08:09:55;;;;;;;3.90;2.70;;;13.90;99.90;;;;;;5009601;28;20413;-67
2022/03/28 08:12:21;;;;;;;3.80;2.90;;;13.70;99.90;;;;;;5000290;28;20181;-68
2022/03/28 08:14:48;;;;;;;4.13;3.73;;;13.90;99.90;;;;;;5006171;28;20700;-70
2022/03/28 08:17:13;;;;;;;5.90;3.10;;;13.30;99.90;;;;;;5011191;28;20177;-67
2022/03/28 08:19:39;;;;;;;3.80;3.30;;;14.40;99.90;;;;;;5011196;28;20475;-68
2022/03/28 08:22:04;;;;;;;3.17;2.40;;;15.60;99.90;;;;;;4998199;28;20682;-68
2022/03/28 08:24:29;;;;;;;4.33;3.10;;;15.30;99.90;;;;;;5008972;28;20198;-68
2022/03/28 08:26:55;;;;;;;4.43;2.80;;;14.70;99.90;;;;;;5007443;28;20189;-70
2022/03/28 08:29:20;;;;;;;5.37;3.20;;;14.20;99.90;;;;;;4991764;28;20164;-68
2022/03/28 08:31:46;;;;;;;3.00;2.70;;;14.00;99.90;;;;;;4991902;28;20215;-69
2022/03/28 08:34:11;;;;;;;5.10;4.00;;;14.60;99.90;;;;;;4991865;28;20185;-68
2022/03/28 08:36:37;;;;;;;6.40;4.60;;;15.30;99.90;;;;;;4995246;28;20210;-68
2022/03/28 08:39:04;;;;;;;4.90;4.23;;;16.60;99.90;;;;;;5008623;28;20239;-69
2022/03/28 08:41:32;;;;;;;4.30;3.30;;;16.70;99.90;;;;;;5011109;28;20506;-67
2022/03/28 08:43:58;;;;;;;4.33;2.70;;;16.70;99.90;;;;;;5011273;28;20434;-68
2022/03/28 08:46:24;;;;;;;2.43;2.23;;;17.60;99.90;;;;;;5011193;28;20460;-68
2022/03/28 08:48:53;;;;;;;8.37;6.43;;;15.90;99.90;;;;;;5009598;28;20486;-68
2022/03/28 08:51:19;;;;;;;5.23;3.70;;;16.50;99.90;;;;;;5009891;28;20204;-68
2022/03/28 08:53:45;;;;;;;6.77;3.03;;;15.40;99.90;;;;;;5013696;28;20857;-67
2022/03/28 08:56:11;;;;;;;4.67;3.57;;;14.00;99.90;;;;;;5014990;28;20223;-68
2022/03/28 08:58:37;;;;;;;6.93;4.03;;;14.10;99.90;;;;;;5014776;28;20503;-68
2022/03/28 09:01:04;;;;;;;4.27;3.23;;;14.10;99.90;;;;;;5015300;28;20901;-66
2022/03/28 09:03:44;;;;;;;4.40;3.40;;;14.70;99.90;;;;;;5015089;28;20221;-67
2022/03/28 09:06:36;;;;;;;4.87;3.60;;;15.10;99.90;;;;;;5014868;28;20979;-68
2022/03/28 09:09:19;;;;;;;5.27;4.23;;;15.20;99.90;;;;;;5014572;28;20891;-68
2022/03/28 09:11:51;;;;;;;6.23;4.63;;;15.90;99.90;;;;;;5014670;28;20856;-66
2022/03/28 09:14:31;;;;;;;7.53;5.57;;;16.60;99.90;;;;;;5014484;28;20426;-67
2022/03/28 09:17:09;;;;;;;4.97;3.10;;;16.00;99.90;;;;;;4999877;28;20501;-69
2022/03/28 09:19:59;;;;;;;38.53;23.70;;;15.40;99.90;;;;;;5014305;28;20413;-67
2022/03/28 09:22:29;;;;;;;7.33;5.50;;;18.40;99.90;;;;;;5006815;28;20544;-67
2022/03/28 09:24:57;;;;;;;32.77;24.03;;;19.50;96.00;;;;;;5014335;28;20451;-68
2022/03/28 09:27:39;;;;;;;19.50;13.70;;;20.40;94.70;;;;;;5014087;28;20460;-68
2022/03/28 09:30:12;;;;;;;4.80;3.80;;;17.90;95.70;;;;;;5014238;28;20496;-69
2022/03/28 09:32:40;;;;;;;14.33;9.83;;;16.40;97.30;;;;;;5014150;28;20417;-67
2022/03/28 09:35:19;;;;;;;3.83;2.93;;;17.30;97.90;;;;;;5014647;28;20506;-67
2022/03/28 09:38:05;;;;;;;5.60;3.77;;;17.50;95.90;;;;;;5014219;28;20414;-68
2022/03/28 09:40:34;;;;;;;3.60;3.23;;;15.80;98.80;;;;;;5014097;28;20778;-68
2022/03/28 09:43:02;;;;;;;3.53;3.23;;;15.60;98.70;;;;;;5014006;28;20902;-69
2022/03/28 09:45:32;;;;;;;4.20;3.47;;;16.10;97.80;;;;;;5012540;28;20535;-68
2022/03/28 09:48:06;;;;;;;4.77;3.23;;;14.50;99.10;;;;;;5013485;28;20502;-67
2022/03/28 09:50:43;;;;;;;5.50;3.73;;;15.30;99.90;;;;;;5010885;28;20470;-67
2022/03/28 09:53:17;;;;;;;7.00;3.23;;;15.90;99.60;;;;;;5012238;28;20425;-68
2022/03/28 09:55:48;;;;;;;4.30;3.10;;;16.30;97.90;;;;;;5013736;28;20438;-68
2022/03/28 09:58:56;;;;;;;4.27;3.43;;;16.70;97.70;;;;;;5013757;28;20415;-68
2022/03/28 10:01:25;;;;;;;6.20;4.07;;;16.40;98.30;;;;;;5013708;28;20415;-68
2022/03/28 10:03:55;;;;;;;6.43;3.20;;;16.00;99.00;;;;;;5013115;28;20413;-68
2022/03/28 10:06:22;;;;;;;5.73;3.97;;;16.40;98.10;;;;;;5011779;28;20459;-68
2022/03/28 10:08:48;;;;;;;6.63;3.50;;;15.80;98.40;;;;;;4998303;28;20459;-68
2022/03/28 10:11:16;;;;;;;4.33;3.10;;;15.70;98.90;;;;;;5013562;28;20433;-68
2022/03/28 10:13:42;;;;;;;5.73;3.53;;;15.80;98.50;;;;;;5001367;28;20426;-69
2022/03/28 10:16:08;;;;;;;6.40;3.90;;;16.10;98.90;;;;;;4993794;28;20434;-68
2022/03/28 10:18:36;;;;;;;3.53;2.80;;;15.90;98.50;;;;;;4996539;28;20435;-66
2022/03/28 10:21:22;;;;;;;5.30;3.93;;;15.20;98.80;;;;;;5013115;28;20923;-68
2022/03/28 10:24:06;;;;;;;5.73;3.23;;;14.40;99.90;;;;;;5011870;28;20498;-66
2022/03/28 10:26:35;;;;;;;4.53;3.17;;;14.60;99.90;;;;;;5008162;28;20961;-66
2022/03/28 10:29:07;;;;;;;4.90;3.30;;;14.90;99.90;;;;;;5012758;28;20928;-66
2022/03/28 10:31:34;;;;;;;3.10;2.57;;;14.70;99.80;;;;;;5012801;28;20787;-68
2022/03/28 10:34:00;;;;;;;7.20;3.70;;;14.70;99.90;;;;;;5012807;28;20414;-69
2022/03/28 10:36:29;;;;;;;3.40;2.63;;;14.10;99.90;;;;;;5012720;28;20439;-68
2022/03/28 10:39:34;;;;;;;4.80;3.37;;;14.40;99.90;;;;;;5012940;28;20422;-67
2022/03/28 10:42:27;;;;;;;3.20;2.90;;;14.70;99.40;;;;;;4951501;29;20540;-67
2022/03/28 10:45:05;;;;;;;4.93;3.10;;;14.60;99.40;;;;;;4951360;28;20886;-66
2022/03/28 10:47:46;;;;;;;4.33;2.80;;;14.60;99.20;;;;;;4995020;28;20516;-68
2022/03/28 10:50:16;;;;;;;4.07;2.57;;;14.90;99.20;;;;;;5002944;28;20442;-67
2022/03/28 10:53:08;;;;;;;3.30;2.93;;;14.60;99.10;;;;;;5011781;28;20411;-69
2022/03/28 10:55:57;;;;;;;6.07;3.90;;;14.80;99.20;;;;;;5012364;28;20476;-71
2022/03/28 10:58:25;;;;;;;3.53;2.30;;;14.60;99.10;;;;;;5012348;28;20494;-66
2022/03/28 11:01:09;;;;;;;3.70;3.23;;;14.40;99.20;;;;;;5012349;28;20927;-67
2022/03/28 11:03:43;;;;;;;5.07;2.63;;;14.70;99.80;;;;;;5011999;28;20418;-66
2022/03/28 11:06:10;;;;;;;5.93;3.27;;;15.20;98.90;;;;;;5012397;28;20481;-67
2022/03/28 11:08:41;;;;;;;7.80;2.70;;;15.40;98.40;;;;;;5008322;28;20467;-66
2022/03/28 11:11:18;;;;;;;3.63;2.57;;;15.10;98.40;;;;;;5011806;28;20465;-66
2022/03/28 11:14:04;;;;;;;5.70;2.77;;;15.30;99.10;;;;;;5011896;28;20403;-67
2022/03/28 11:16:50;;;;;;;3.07;2.80;;;15.20;98.00;;;;;;5011195;28;20465;-67
2022/03/28 11:19:33;;;;;;;7.73;3.70;;;15.30;98.10;;;;;;5011894;28;20395;-67
2022/03/28 11:22:04;;;;;;;4.50;2.67;;;15.40;97.80;;;;;;5011565;28;20498;-68
2022/03/28 11:24:48;;;;;;;3.93;2.80;;;15.10;98.30;;;;;;5011564;28;20423;-67
2022/03/28 11:27:16;;;;;;;4.80;2.93;;;15.20;97.90;;;;;;5011701;28;20466;-66
2022/03/28 11:29:43;;;;;;;4.40;2.77;;;15.30;97.50;;;;;;5007249;28;20436;-67
2022/03/28 11:32:11;;;;;;;4.77;2.97;;;15.40;97.30;;;;;;5000187;28;20419;-66
2022/03/28 11:34:36;;;;;;;8.77;4.30;;;15.10;97.50;;;;;;5011645;28;20458;-66
2022/03/28 11:37:03;;;;;;;2.77;2.57;;;15.10;97.60;;;;;;4996557;28;20487;-67
2022/03/28 11:39:31;;;;;;;7.00;2.57;;;15.30;97.70;;;;;;4991695;28;20184;-67
2022/03/28 11:41:57;;;;;;;3.70;2.63;;;15.50;97.80;;;;;;5007768;28;20423;-68
2022/03/28 11:44:24;;;;;;;4.10;2.30;;;15.40;97.50;;;;;;5002705;28;20416;-68
2022/03/28 11:46:57;;;;;;;6.27;3.27;;;15.40;97.60;;;;;;5011355;28;20847;-66
2022/03/28 11:49:23;;;;;;;3.97;2.90;;;15.30;97.40;;;;;;5009584;28;20447;-67
2022/03/28 11:51:49;;;;;;;3.90;2.50;;;15.30;97.60;;;;;;5007735;28;20412;-67
2022/03/28 11:54:22;;;;;;;3.93;2.97;;;15.40;97.50;;;;;;4999906;28;20432;-67
2022/03/28 11:59:42;;;;;;;4.00;2.10;;;15.60;97.80;;;;;;5005328;28;20844;-67
2022/03/28 12:02:08;;;;;;;3.53;2.30;;;15.20;97.50;;;;;;5010051;28;20422;-67
2022/03/28 12:04:42;;;;;;;4.70;3.30;;;15.50;97.70;;;;;;5011262;28;20455;-67
2022/03/28 12:07:08;;;;;;;3.67;3.23;;;15.40;97.10;;;;;;5011237;28;20407;-67
2022/03/28 12:09:35;;;;;;;3.90;3.10;;;15.40;97.30;;;;;;5011216;28;20866;-67
2022/03/28 12:12:01;;;;;;;2.47;2.20;;;15.60;97.10;;;;;;5003710;28;20183;-67
2022/03/28 12:14:28;;;;;;;4.47;2.60;;;15.50;96.70;;;;;;5010905;28;20408;-67
2022/03/28 12:16:55;;;;;;;2.97;2.27;;;15.40;96.70;;;;;;5011348;28;20414;-67
2022/03/28 12:19:30;;;;;;;3.53;3.10;;;15.40;97.10;;;;;;5011489;28;20419;-67
2022/03/28 12:22:12;;;;;;;2.47;2.27;;;15.30;97.20;;;;;;5011303;28;20678;-67
2022/03/28 12:24:49;;;;;;;3.00;2.63;;;15.50;97.60;;;;;;5010948;28;20529;-68
2022/03/28 12:27:19;;;;;;;2.70;2.50;;;15.70;97.20;;;;;;5011517;28;20541;-70
2022/03/28 12:29:44;;;;;;;3.83;3.10;;;15.50;97.50;;;;;;5015266;28;20412;-69
2022/03/28 12:32:16;;;;;;;4.33;2.27;;;15.50;97.50;;;;;;5014949;28;20852;-69
2022/03/28 12:34:42;;;;;;;2.50;1.73;;;15.50;97.50;;;;;;5014947;28;20208;-68
2022/03/28 12:37:08;;;;;;;2.90;1.83;;;15.50;97.50;;;;;;5015218;28;20457;-68
2022/03/28 12:39:33;;;;;;;3.40;2.23;;;15.40;97.60;;;;;;5014777;28;20172;-67
2022/03/28 12:42:00;;;;;;;4.60;2.27;;;15.50;97.90;;;;;;5014747;28;20180;-67
2022/03/28 12:44:26;;;;;;;3.43;2.50;;;15.70;98.10;;;;;;5014853;28;20260;-68
2022/03/28 12:47:00;;;;;;;6.20;3.60;;;15.90;98.10;;;;;;5014686;28;20562;-67
2022/03/28 12:49:26;;;;;;;4.50;3.07;;;16.00;98.40;;;;;;5013429;28;20172;-67
2022/03/28 12:51:51;;;;;;;4.37;2.90;;;15.80;98.30;;;;;;5014410;28;20783;-66
2022/03/28 12:54:21;;;;;;;4.67;3.40;;;15.70;99.30;;;;;;5014722;28;20182;-67
2022/03/28 12:56:48;;;;;;;3.73;2.73;;;15.60;99.70;;;;;;5014437;28;20165;-68